CST,Max TemperatureF,Mean TemperatureF,Min TemperatureF,Max Dew PointF,MeanDew PointF,Min DewpointF,Max Humidity, Mean Humidity, Min Humidity, Max Sea Level PressureIn, Mean Sea Level PressureIn, Min Sea Level PressureIn, Max VisibilityMiles, Mean VisibilityMiles, Min VisibilityMiles, Max Wind SpeedMPH, Mean Wind SpeedMPH, Max Gust SpeedMPH,PrecipitationIn, CloudCover, Events, WindDirDegrees
2013-2-1,44,37,30,33,23,16,78,64,49,30.56,30.45,30.33,10,10,10,20,8,26,0.00,0,,38
2013-2-2,58,46,33,43,36,25,78,68,57,30.31,30.26,30.21,10,10,10,15,10,20,T,3,Rain,214
2013-2-3,61,46,30,37,33,28,92,61,29,30.28,30.23,30.15,10,10,10,18,6,23,0.00,0,,296
2013-2-4,59,50,40,46,39,33,80,64,47,30.14,30.03,29.93,10,10,10,16,8,23,0.03,4,Rain,162
2013-2-5,62,51,40,52,47,40,100,86,72,30.09,30.03,29.94,10,7,0,8,2,9,0.02,5,Fog-Rain,350
2013-2-6,65,52,38,52,47,38,100,82,63,30.20,30.11,30.01,10,6,0,10,4,13,0.00,4,Fog,71
2013-2-7,69,62,55,58,54,49,93,78,63,30.01,29.96,29.90,10,8,4,10,4,13,0.02,7,Rain,119
2013-2-8,60,49,37,57,47,35,93,78,63,30.30,30.11,29.93,10,9,4,24,14,31,0.00,5,,356
2013-2-9,57,44,31,42,37,31,96,72,47,30.31,30.20,30.04,10,8,4,15,8,20,0.00,2,,93
2013-2-10,62,58,54,60,56,43,100,81,61,30.05,29.89,29.80,10,7,1,25,12,32,0.79,7,Rain-Thunderstorm,162
2013-2-11,60,55,50,55,43,37,90,72,54,30.20,30.14,30.03,10,10,10,16,8,20,0.00,6,Rain,17
2013-2-12,49,47,45,45,43,40,100,86,71,30.16,29.93,29.82,10,6,2,21,10,26,0.67,7,Rain,53
2013-2-13,51,44,37,45,40,35,100,81,61,30.10,29.97,29.81,10,10,5,17,9,24,0.01,6,Rain,289
2013-2-14,60,47,33,43,38,31,100,71,42,30.15,30.11,30.07,10,10,8,13,7,18,0.00,0,,223
2013-2-15,56,48,39,39,35,30,89,66,43,30.26,30.20,30.11,10,10,10,17,9,22,0.00,1,,330
2013-2-16,47,39,30,30,23,19,78,58,37,30.33,30.30,30.26,10,10,10,22,9,26,0.00,1,,342
2013-2-17,59,45,31,38,31,25,75,58,40,30.32,30.23,30.14,10,10,10,20,12,25,0.00,2,,174
2013-2-18,67,56,45,55,48,38,93,78,63,30.14,29.99,29.84,10,9,2,35,16,41,0.44,7,Rain-Thunderstorm,188
2013-2-19,55,45,35,44,34,29,85,62,38,30.32,30.24,30.03,10,10,10,21,8,25,0.00,0,,354
2013-2-20,44,39,34,34,28,21,92,70,48,30.35,30.25,30.14,10,10,10,21,10,24,0.02,4,Rain,46
2013-2-21,57,49,40,55,41,27,100,77,54,30.13,29.85,29.69,10,9,2,22,12,29,0.36,7,Rain-Thunderstorm,131
2013-2-22,52,44,36,45,40,36,100,89,77,30.12,30.02,29.92,10,5,0,13,6,16,0.00,6,Fog,349
2013-2-23,53,44,35,39,35,31,92,73,54,30.10,30.04,29.98,10,10,10,14,9,20,0.00,1,,20
2013-2-24,60,46,32,43,37,30,92,69,46,30.09,30.00,29.84,10,10,7,13,8,17,0.00,0,,54
2013-2-25,64,57,50,59,51,38,93,74,54,29.83,29.54,29.33,10,8,0,36,13,45,0.98,7,Fog-Rain-Thunderstorm,125
2013-2-26,52,45,38,45,35,33,96,78,60,29.93,29.67,29.47,10,10,10,30,16,39,0.00,6,,252
2013-2-27,58,45,31,38,35,31,89,68,47,30.07,30.00,29.94,10,10,9,20,8,24,0.00,1,,288
2013-2-28,53,44,34,35,31,28,92,67,41,30.17,30.12,30.04,10,10,10,17,8,22,0.00,0,,327